Terminal Aerodrome Forecast
Issued by NWS Charleston, SC

Home | Current Version | Previous Version | Text Only | Print | Product List | Glossary On
Versions: 1 2 3 4 5 6 7 8 9 10 11 12 13 14 15
000
FTUS42 KCHS 300149 AAA
TAFCHS
TAF AMD
KCHS 300149Z 3002/3024 19007KT P6SM SCT080 OVC120 WS010/22030KT
      TEMPO 3002/3006 -SHRA
     FM300600 23008KT P6SM BKN035 OVC080 WS010/25035KT
      TEMPO 3007/3011 6SM -SHRA BKN030
     FM301400 33013G22KT P6SM FEW030=

USA.gov is the U.S. government's official web portal to all federal, state and local government web resources and services.